Flight Track Log - Related Links

Times and Time Zones

All times are in EDT time to prevent confusion due to time zone crossing. See the LYM613 flight status page for this flight to view local times or setup timezone preferences in your user account.

Time Position Orientation Groundspeed Altitude Reporting Facility
EDT Latitude Longitude Course Direction KTS MPH feet Rate Location/Type
Mon 02:23:46 PM 40.8033 -111.9633 349° North 134 154 5,000  Level Salt Lake Center
Mon 02:24:22 PM 40.8328 -111.9706 350° North 182 209 6,200 2,360 Climbing Salt Lake Center
Mon 02:25:15 PM 40.8833 -111.9822 North 221 254 8,500 2,690 Climbing Salt Lake Center
Mon 02:26:18 PM 40.9464 -111.9764 81° East 237 273 11,400 2,304 Climbing Salt Lake Center
Mon 02:27:20 PM 40.9564 -111.8922 94° East 251 289 13,300 2,129 Climbing Salt Lake Center
Mon 02:28:22 PM 40.9503 -111.7747 86° East 281 323 15,800 2,081 Climbing Salt Lake Center
Mon 02:29:24 PM 40.9561 -111.6703 71° East 291 335 17,600 1,548 Climbing Salt Lake Center
Mon 02:30:26 PM 40.9833 -111.5647 72° East 305 351 19,000 1,296 Climbing Salt Lake Center
Mon 02:31:29 PM 41.0114 -111.4508 52° Northeast 323 372 20,300 1,440 Climbing Salt Lake Center
Mon 02:32:31 PM 41.0697 -111.3514 35° Northeast 342 394 22,000 1,790 Climbing Salt Lake Center
Mon 02:33:33 PM 41.1603 -111.2667 36° Northeast 338 389 24,000 1,742 Climbing Salt Lake Center
Mon 02:34:35 PM 41.2378 -111.1931 35° Northeast 339 390 25,600 1,597 Climbing Salt Lake Center
Mon 02:35:37 PM 41.3153 -111.1214 36° Northeast 338 389 27,300 1,597 Climbing Salt Lake Center
Mon 02:36:39 PM 41.3883 -111.0517 35° Northeast 327 376 28,900 1,403 Climbing Salt Lake Center
Mon 02:37:41 PM 41.4586 -110.9861 35° Northeast 312 359 30,200 1,016 Climbing Salt Lake Center
Mon 02:38:43 PM 41.5392 -110.9106 35° Northeast 308 354 31,000 387 Climbing Salt Lake Center
Mon 02:39:45 PM 41.6089 -110.8442 36° Northeast 315 362 31,000  Level Salt Lake Center
Mon 02:40:47 PM 41.6811 -110.7744 35° Northeast 328 377 31,000  Level Salt Lake Center
Mon 02:42:02 PM 41.7786 -110.6817 35° Northeast 334 384 31,000  Level Salt Lake Center
Mon 02:43:04 PM 41.8614 -110.6044 35° Northeast 329 379 31,000  Level Salt Lake Center
Mon 02:44:06 PM 41.9292 -110.5411 35° Northeast 317 365 31,000  Level Salt Lake Center
Mon 02:45:08 PM 42.0067 -110.4672 36° Northeast 310 357 31,000  Level Salt Lake Center
Mon 02:46:10 PM 42.0717 -110.4039 35° Northeast 305 351 31,000  Level Salt Lake Center
Mon 02:47:12 PM 42.1389 -110.3394 36° Northeast 307 353 31,000  Level Salt Lake Center
Mon 02:48:14 PM 42.2178 -110.2614 36° Northeast 311 358 31,000  Level Salt Lake Center
Mon 02:49:16 PM 42.2850 -110.1942 35° Northeast 314 361 31,000  Level Salt Lake Center
Mon 02:50:18 PM 42.3656 -110.1167 35° Northeast 316 364 31,000  Level Salt Lake Center
Mon 02:51:20 PM 42.4350 -110.0511 37° Northeast 317 365 31,000  Level Salt Lake Center
Mon 02:52:22 PM 42.5147 -109.9708 36° Northeast 319 367 31,000  Level Salt Lake Center
Mon 02:53:24 PM 42.5828 -109.9044 36° Northeast 316 364 31,000  Level Salt Lake Center
Mon 02:54:27 PM 42.6614 -109.8272 36° Northeast 313 360 31,000  Level Salt Lake Center
Mon 02:55:29 PM 42.7275 -109.7611 36° Northeast 310 357 31,000  Level Salt Lake Center
Mon 02:56:31 PM 42.8050 -109.6850 36° Northeast 308 354 31,000  Level Salt Lake Center
Mon 02:57:33 PM 42.8711 -109.6183 36° Northeast 308 354 31,000  Level Salt Lake Center
Mon 02:58:35 PM 42.9258 -109.5636 36° Northeast 307 353 31,000  Level Salt Lake Center
Mon 02:59:37 PM 43.0150 -109.4753 36° Northeast 303 349 31,000  Level Salt Lake Center
Mon 03:00:39 PM 43.0803 -109.4094 36° Northeast 304 350 31,000  Level Salt Lake Center
Mon 03:01:41 PM 43.1564 -109.3331 37° Northeast 304 350 31,000  Level Salt Lake Center
Mon 03:02:43 PM 43.2214 -109.2667 36° Northeast 304 350 31,000  Level Salt Lake Center
Mon 03:03:45 PM 43.2978 -109.1894 36° Northeast 305 351 31,000  Level Salt Lake Center
Mon 03:04:47 PM 43.3650 -109.1214 37° Northeast 311 358 31,000  Level Salt Lake Center
Mon 03:05:50 PM 43.4439 -109.0406 37° Northeast 315 362 31,000  Level Salt Lake Center
Mon 03:06:52 PM 43.5108 -108.9706 37° Northeast 316 364 31,000  Level Salt Lake Center
Mon 03:07:54 PM 43.5900 -108.8894 37° Northeast 317 365 31,000  Level Salt Lake Center
Mon 03:08:56 PM 43.6578 -108.8197 36° Northeast 317 365 31,000  Level Salt Lake Center
Mon 03:09:58 PM 43.7364 -108.7394 37° Northeast 315 362 31,000  Level Salt Lake Center
Mon 03:11:00 PM 43.8036 -108.6697 37° Northeast 315 362 31,000  Level Salt Lake Center
Mon 03:12:02 PM 43.8822 -108.5889 37° Northeast 315 362 31,000  Level Salt Lake Center
Mon 03:13:05 PM 43.9494 -108.5175 37° Northeast 316 364 31,000  Level Salt Lake Center
Mon 03:14:07 PM 44.0167 -108.4475 37° Northeast 316 364 31,000  Level Salt Lake Center
Mon 03:15:09 PM 44.0956 -108.3644 37° Northeast 317 365 31,000  Level Salt Lake Center
Mon 03:16:11 PM 44.1625 -108.2936 37° Northeast 317 365 31,000  Level Salt Lake Center
Mon 03:17:13 PM 44.2406 -108.2114 37° Northeast 316 364 31,000  Level Salt Lake Center
Mon 03:18:15 PM 44.3072 -108.1406 37° Northeast 315 362 31,000  Level Salt Lake Center
Mon 03:19:17 PM 44.3853 -108.0575 38° Northeast 316 364 31,000  Level Salt Lake Center
Mon 03:20:20 PM 44.4514 -107.9858 37° Northeast 315 362 31,000  Level Salt Lake Center
Mon 03:21:22 PM 44.5292 -107.9028 38° Northeast 316 364 31,000  Level Salt Lake Center
Mon 03:22:24 PM 44.5953 -107.8314 38° Northeast 316 364 31,000  Level Salt Lake Center
Mon 03:23:26 PM 44.6717 -107.7489 37° Northeast 314 361 31,000  Level Salt Lake Center
Mon 03:24:28 PM 44.7450 -107.6719 38° Northeast 312 359 31,000  Level Salt Lake Center
Mon 03:25:30 PM 44.8122 -107.5986 38° Northeast 309 356 31,000  Level Salt Lake Center
Mon 03:26:32 PM 44.8875 -107.5169 38° Northeast 308 354 31,000  Level Salt Lake Center
Mon 03:27:35 PM 44.9522 -107.4458 37° Northeast 308 354 31,000  Level Salt Lake Center
Mon 03:28:37 PM 45.0272 -107.3650 38° Northeast 306 352 31,000  Level Salt Lake Center
Mon 03:29:39 PM 45.0919 -107.2944 38° Northeast 306 352 31,000  Level Salt Lake Center
Mon 03:30:41 PM 45.1672 -107.2122 38° Northeast 306 352 31,000  Level Salt Lake Center
Mon 03:31:43 PM 45.2314 -107.1403 38° Northeast 307 353 31,000  Level Salt Lake Center
Mon 03:32:46 PM 45.3064 -107.0569 38° Northeast 307 353 31,000  Level Salt Lake Center
Mon 03:33:48 PM 45.3711 -106.9844 38° Northeast 308 354 31,000  Level Salt Lake Center
Mon 03:34:50 PM 45.4364 -106.9117 38° Northeast 310 357 31,000  Level Salt Lake Center
Mon 03:35:52 PM 45.5122 -106.8267 38° Northeast 311 358 31,000  Level Salt Lake Center
Mon 03:36:55 PM 45.5781 -106.7533 38° Northeast 312 359 31,000  Level Salt Lake Center
Mon 03:37:57 PM 45.6547 -106.6683 38° Northeast 313 360 31,000  Level Salt Lake Center
Mon 03:38:59 PM 45.7208 -106.5950 38° Northeast 313 360 31,000  Level Salt Lake Center
Mon 03:42:06 PM 45.9381 -106.3475 38° Northeast 311 358 31,000  Level Salt Lake Center
Mon 03:43:08 PM 46.0031 -106.2753 38° Northeast 310 357 31,000  Level Salt Lake Center
Mon 03:44:10 PM 46.0769 -106.1922 39° Northeast 305 351 31,000  Level Salt Lake Center
Mon 03:47:16 PM 46.2781 -105.9581 39° Northeast 306 352 31,000  Level Salt Lake Center
Mon 03:52:39 PM 46.6325 -105.5453 39° Northeast 314 361 31,000  Level Salt Lake Center
Mon 03:53:41 PM 46.7144 -105.4483 39° Northeast 317 365 31,000  Level Salt Lake Center
Mon 03:54:44 PM 46.7833 -105.3664 39° Northeast 318 366 31,000  Level Salt Lake Center
Mon 03:55:46 PM 46.8517 -105.2856 39° Northeast 318 366 31,000  Level Salt Lake Center
Mon 03:56:48 PM 46.9200 -105.2042 39° Northeast 318 366 31,000  Level Salt Lake Center
Mon 03:57:50 PM 46.9883 -105.1222 38° Northeast 318 366 31,000 -387 Level Salt Lake Center
Mon 03:58:52 PM 47.0578 -105.0419 40° Northeast 318 366 30,200 -1,306 Descending Salt Lake Center
Mon 03:59:54 PM 47.1347 -104.9472 40° Northeast 309 356 28,300 -1,742 Descending Salt Lake Center
Mon 04:00:56 PM 47.1997 -104.8661 39° Northeast 307 353 26,600 -1,645 Descending Salt Lake Center
Mon 04:01:58 PM 47.2697 -104.7814 40° Northeast 314 361 24,900 -1,694 Descending Salt Lake Center
Mon 04:03:00 PM 47.3422 -104.6928 40° Northeast 326 375 23,100 -1,790 Descending Salt Lake Center
Mon 04:04:02 PM 47.4169 -104.6000 40° Northeast 338 389 21,200 -1,839 Descending Salt Lake Center
Mon 04:05:04 PM 47.4942 -104.5036 40° Northeast 351 404 19,300 -2,032 Descending Salt Lake Center
Mon 04:06:06 PM 47.5861 -104.3897 40° Northeast 357 411 17,000 -1,984 Descending Salt Lake Center
Mon 04:07:08 PM 47.6586 -104.2994 40° Northeast 351 404 15,200 -1,694 Descending Salt Lake Center
Mon 04:08:10 PM 47.7264 -104.2144 40° Northeast 332 382 13,500 -1,548 Descending Salt Lake Center
Mon 04:09:12 PM 47.7897 -104.1344 40° Northeast 310 357 12,000 -1,452 Descending Salt Lake Center
Mon 04:10:14 PM 47.8467 -104.0622 39° Northeast 281 323 10,500 -1,452 Descending Salt Lake Center
Mon 04:11:16 PM 47.9069 -103.9883 40° Northeast 276 318 9,000 -1,403 Descending Salt Lake Center
Mon 04:12:18 PM 47.9633 -103.9167 41° Northeast 272 313 7,600 -1,645 Descending Salt Lake Center
Mon 04:13:20 PM 48.0161 -103.8492 41° Northeast 261 300 5,600 -1,935 Descending Salt Lake Center

Login

Don't have an account? Register now (free) for customized features, flight alerts, and more!